createdAt,value
2017-01-02T00:00:05.119Z,20.3
2017-01-02T00:02:04.893Z,20.3
2017-01-02T00:04:04.668Z,20.3
2017-01-02T00:06:05.767Z,20.3
2017-01-02T00:08:05.820Z,20.3
2017-01-02T00:10:05.602Z,20.3
2017-01-02T00:12:05.308Z,20.3
2017-01-02T00:14:05.435Z,20.3
2017-01-02T00:16:05.247Z,20.3
2017-01-02T00:18:05.216Z,20.3
2017-01-02T00:20:08.195Z,20.3
2017-01-02T00:22:05.250Z,20.3
2017-01-02T00:24:04.951Z,20.3
2017-01-02T00:26:05.001Z,20.3
2017-01-02T00:28:04.760Z,20.3
2017-01-02T00:30:05.467Z,20.3
2017-01-02T00:32:05.497Z,20.3
2017-01-02T00:34:07.734Z,20.3
2017-01-02T00:36:05.484Z,20.3
2017-01-02T00:38:05.378Z,20.3
2017-01-02T00:40:05.080Z,20.2
2017-01-02T00:42:07.289Z,20.2
2017-01-02T00:44:05.365Z,20.2
2017-01-02T00:46:05.069Z,20.2
2017-01-02T00:48:04.843Z,20.2
2017-01-02T00:50:13.189Z,20.2
2017-01-02T00:52:04.859Z,20.2
2017-01-02T00:54:08.241Z,20.2
2017-01-02T00:56:07.813Z,20.2
2017-01-02T00:58:05.050Z,20.2
2017-01-02T01:00:04.773Z,20.2
2017-01-02T01:02:05.860Z,20.2
2017-01-02T01:04:07.357Z,20.2
2017-01-02T01:06:05.063Z,20.1
2017-01-02T01:08:05.227Z,20.1
2017-01-02T01:10:05.293Z,20.1
2017-01-02T01:12:05.585Z,20.1
2017-01-02T01:14:07.822Z,20.1
2017-01-02T01:16:08.142Z,20.1
2017-01-02T01:18:10.152Z,20.1
2017-01-02T01:20:04.965Z,20.1
2017-01-02T01:22:07.292Z,20.1
2017-01-02T01:24:07.510Z,20
2017-01-02T01:26:05.374Z,20
2017-01-02T01:28:07.660Z,20
2017-01-02T01:30:04.914Z,20
2017-01-02T01:32:09.760Z,20
2017-01-02T01:34:08.003Z,20
2017-01-02T01:36:04.807Z,20
2017-01-02T01:38:05.571Z,20
2017-01-02T01:40:05.360Z,20
2017-01-02T01:42:04.830Z,20
2017-01-02T01:44:05.853Z,20
2017-01-02T01:46:04.709Z,19.9
2017-01-02T01:48:07.970Z,19.9
2017-01-02T01:50:05.096Z,19.9
2017-01-02T01:52:05.477Z,19.9
2017-01-02T01:54:05.211Z,19.9
2017-01-02T01:56:10.279Z,19.9
2017-01-02T01:58:05.288Z,19.9
2017-01-02T02:00:10.153Z,19.9
2017-01-02T02:02:05.350Z,19.9
2017-01-02T02:04:05.167Z,19.9
2017-01-02T02:06:04.733Z,19.9
2017-01-02T02:08:05.539Z,19.9
2017-01-02T02:10:05.271Z,19.9
2017-01-02T02:12:04.994Z,19.9
2017-01-02T02:14:12.278Z,19.9
2017-01-02T02:16:05.007Z,19.8
2017-01-02T02:18:07.486Z,19.8
2017-01-02T02:20:05.574Z,19.8
2017-01-02T02:22:05.251Z,19.8
2017-01-02T02:24:12.563Z,19.8
2017-01-02T02:26:05.684Z,19.8
2017-01-02T02:28:05.415Z,19.8
2017-01-02T02:30:05.546Z,19.8
2017-01-02T02:32:05.285Z,19.8
2017-01-02T02:34:04.963Z,19.8
2017-01-02T02:36:05.265Z,19.8
2017-01-02T02:38:04.993Z,19.8
2017-01-02T02:40:04.741Z,19.8
2017-01-02T02:42:05.453Z,19.8
2017-01-02T02:44:08.035Z,19.7
2017-01-02T02:46:05.067Z,19.8
2017-01-02T02:48:14.874Z,19.7
2017-01-02T02:50:05.705Z,19.7
2017-01-02T02:52:04.953Z,19.8
2017-01-02T02:54:05.209Z,19.8
2017-01-02T02:56:05.882Z,19.8
2017-01-02T02:58:04.664Z,19.8
2017-01-02T03:00:05.447Z,19.8
2017-01-02T03:02:05.188Z,19.7
2017-01-02T03:04:04.978Z,19.8
2017-01-02T03:06:05.223Z,19.7
2017-01-02T03:08:07.617Z,19.8
2017-01-02T03:10:07.375Z,19.7
2017-01-02T03:12:05.664Z,19.8
2017-01-02T03:14:05.391Z,19.7
2017-01-02T03:16:05.134Z,19.7
2017-01-02T03:18:05.150Z,19.8
2017-01-02T03:20:04.953Z,19.8
2017-01-02T03:22:04.634Z,19.8
2017-01-02T03:24:05.326Z,19.8
2017-01-02T03:26:07.495Z,19.8
2017-01-02T03:28:04.717Z,19.8
2017-01-02T03:30:05.467Z,19.8
2017-01-02T03:32:05.512Z,19.8
2017-01-02T03:34:05.227Z,19.8
2017-01-02T03:36:05.503Z,19.8
2017-01-02T03:38:05.573Z,19.8
2017-01-02T03:40:05.301Z,19.8
2017-01-02T03:42:05.060Z,19.8
2017-01-02T03:44:07.449Z,19.9
2017-01-02T03:46:04.726Z,19.9
2017-01-02T03:48:05.508Z,19.8
2017-01-02T03:50:05.583Z,19.8
2017-01-02T03:52:05.314Z,19.8
2017-01-02T03:54:05.063Z,19.8
2017-01-02T03:56:05.017Z,19.8
2017-01-02T03:58:07.304Z,19.9
2017-01-02T04:00:05.012Z,19.8
2017-01-02T04:02:04.756Z,19.9
2017-01-02T04:04:05.425Z,19.9
2017-01-02T04:06:05.021Z,19.9
2017-01-02T04:08:04.977Z,19.9
2017-01-02T04:10:05.204Z,19.9
2017-01-02T04:12:10.009Z,19.9
2017-01-02T04:14:07.404Z,19.9
2017-01-02T04:16:04.614Z,19.9
2017-01-02T04:18:07.563Z,19.9
2017-01-02T04:20:05.597Z,19.9
2017-01-02T04:22:05.665Z,19.9
2017-01-02T04:24:05.410Z,19.9
2017-01-02T04:26:05.387Z,19.9
2017-01-02T04:28:07.591Z,19.9
2017-01-02T04:30:05.378Z,19.9
2017-01-02T04:32:08.002Z,19.9
2017-01-02T04:34:04.693Z,19.9
2017-01-02T04:36:05.437Z,20
2017-01-02T04:38:07.219Z,19.9
2017-01-02T04:40:04.959Z,19.9
2017-01-02T04:42:04.755Z,20
2017-01-02T04:44:05.653Z,19.9
2017-01-02T04:46:04.921Z,19.9
2017-01-02T04:48:04.627Z,19.9
2017-01-02T04:50:08.204Z,20
2017-01-02T04:52:10.031Z,19.9
2017-01-02T04:54:05.431Z,19.9
2017-01-02T04:56:05.292Z,20
2017-01-02T04:58:15.144Z,19.9
2017-01-02T05:00:04.896Z,19.9
2017-01-02T05:02:05.925Z,20
2017-01-02T05:04:04.691Z,19.9
2017-01-02T05:06:05.484Z,19.9
2017-01-02T05:08:05.554Z,19.9
2017-01-02T05:10:05.615Z,19.9
2017-01-02T05:12:05.395Z,19.9
2017-01-02T05:14:05.538Z,19.9
2017-01-02T05:16:05.270Z,20
2017-01-02T05:18:05.179Z,20
2017-01-02T05:20:05.029Z,20
2017-01-02T05:22:04.731Z,19.9
2017-01-02T05:24:05.521Z,20
2017-01-02T05:26:05.490Z,20
2017-01-02T05:28:05.171Z,20
2017-01-02T05:30:04.991Z,20
2017-01-02T05:32:05.747Z,20
2017-01-02T05:34:05.468Z,20
2017-01-02T05:36:05.172Z,20
2017-01-02T05:38:05.021Z,20
2017-01-02T05:40:04.743Z,20
2017-01-02T05:42:05.620Z,20
2017-01-02T05:44:07.891Z,20
2017-01-02T05:46:08.122Z,20
2017-01-02T05:48:04.862Z,20
2017-01-02T05:50:08.492Z,20
2017-01-02T05:52:07.235Z,20
2017-01-02T05:54:05.440Z,20
2017-01-02T05:56:08.094Z,20
2017-01-02T05:58:04.855Z,20
2017-01-02T06:00:07.635Z,20
2017-01-02T06:02:05.347Z,20
2017-01-02T06:04:05.112Z,20
2017-01-02T06:06:07.381Z,20
2017-01-02T06:08:05.239Z,20
2017-01-02T06:10:05.521Z,20
2017-01-02T06:12:10.317Z,20
2017-01-02T06:14:05.889Z,20
2017-01-02T06:16:05.655Z,20
2017-01-02T06:18:05.801Z,20
2017-01-02T06:20:05.448Z,20
2017-01-02T06:22:05.182Z,20
2017-01-02T06:24:07.521Z,20.1
2017-01-02T06:26:10.644Z,20
2017-01-02T06:28:05.347Z,20
2017-01-02T06:30:07.650Z,20
2017-01-02T06:32:05.538Z,20
2017-01-02T06:34:05.286Z,20
2017-01-02T06:36:05.005Z,20
2017-01-02T06:38:07.392Z,20
2017-01-02T06:40:07.220Z,20
2017-01-02T06:42:07.469Z,20
2017-01-02T06:44:05.409Z,20
2017-01-02T06:46:05.703Z,20
2017-01-02T06:48:05.462Z,20.1
2017-01-02T06:50:05.572Z,20
2017-01-02T06:52:05.222Z,20.1
2017-01-02T06:54:04.916Z,20
2017-01-02T06:56:07.157Z,20.1
2017-01-02T06:58:05.367Z,20.1
2017-01-02T07:00:04.645Z,20.1
2017-01-02T07:02:05.664Z,20.1
2017-01-02T07:04:05.377Z,20.1
2017-01-02T07:06:05.126Z,20.1
2017-01-02T07:08:04.928Z,20.1
2017-01-02T07:10:04.611Z,20.1
2017-01-02T07:12:10.369Z,20.1
2017-01-02T07:14:05.925Z,20.1
2017-01-02T07:16:04.757Z,20.1
2017-01-02T07:18:04.875Z,20.1
2017-01-02T07:20:04.985Z,20.1
2017-01-02T07:22:04.724Z,20.1
2017-01-02T07:24:05.561Z,20.1
2017-01-02T07:26:05.509Z,20.1
2017-01-02T07:28:05.238Z,20.1
2017-01-02T07:30:04.939Z,20.1
2017-01-02T07:32:04.814Z,20.1
2017-01-02T07:34:05.636Z,20.1
2017-01-02T07:36:07.898Z,20.1
2017-01-02T07:38:05.791Z,20.1
2017-01-02T07:40:08.158Z,20.1
2017-01-02T07:42:04.898Z,20.1
2017-01-02T07:44:05.629Z,20.1
2017-01-02T07:46:05.339Z,20.1
2017-01-02T07:48:05.129Z,20.1
2017-01-02T07:50:05.025Z,20.1
2017-01-02T07:52:04.728Z,20.1
2017-01-02T07:54:05.407Z,20.1
2017-01-02T07:56:05.490Z,20.1
2017-01-02T07:58:05.212Z,20.1
2017-01-02T08:00:07.508Z,20.2
2017-01-02T08:02:05.587Z,20.2
2017-01-02T08:04:05.302Z,20.2
2017-01-02T08:06:05.047Z,20.2
2017-01-02T08:08:05.280Z,20.2
2017-01-02T08:10:05.071Z,20.2
2017-01-02T08:12:04.833Z,20.2
2017-01-02T08:14:13.315Z,20.2
2017-01-02T08:16:05.220Z,20.2
2017-01-02T08:18:05.177Z,20.2
2017-01-02T08:20:05.819Z,20.2
2017-01-02T08:22:08.427Z,20.2
2017-01-02T08:24:10.199Z,20.2
2017-01-02T08:26:05.263Z,20.2
2017-01-02T08:28:05.283Z,20.2
2017-01-02T08:30:05.030Z,20.2
2017-01-02T08:32:05.065Z,20.3
2017-01-02T08:34:09.838Z,20.3
2017-01-02T08:36:05.585Z,20.3
2017-01-02T08:38:05.348Z,20.3
2017-01-02T08:40:05.584Z,20.2
2017-01-02T08:42:05.306Z,20.2
2017-01-02T08:44:05.931Z,20.2
2017-01-02T08:46:04.653Z,20.2
2017-01-02T08:48:05.384Z,20.2
2017-01-02T08:50:04.953Z,20.2
2017-01-02T08:52:07.202Z,20.2
2017-01-02T08:54:07.594Z,20.2
2017-01-02T08:56:08.656Z,20.2
2017-01-02T08:58:05.571Z,20.2
2017-01-02T09:00:05.352Z,20.2
2017-01-02T09:02:05.467Z,20.2
2017-01-02T09:04:04.659Z,20.2
2017-01-02T09:06:05.456Z,20.2
2017-01-02T09:08:04.757Z,20.2
2017-01-02T09:10:05.639Z,20.2
2017-01-02T09:12:05.431Z,20.2
2017-01-02T09:14:05.218Z,20.2
2017-01-02T09:16:04.909Z,20.2
2017-01-02T09:18:04.768Z,20.2
2017-01-02T09:20:10.956Z,20.2
2017-01-02T09:22:07.231Z,20.2
2017-01-02T09:24:04.908Z,20.2
2017-01-02T09:26:05.745Z,20.2
2017-01-02T09:28:07.997Z,20.2
2017-01-02T09:30:04.693Z,20.2
2017-01-02T09:32:05.442Z,20.2
2017-01-02T09:34:05.156Z,20.2
2017-01-02T09:36:04.874Z,20.2
2017-01-02T09:38:04.650Z,20.2
2017-01-02T09:40:07.865Z,20.2
2017-01-02T09:42:05.753Z,20.2
2017-01-02T09:44:08.160Z,20.2
2017-01-02T09:46:09.884Z,20.3
2017-01-02T09:48:05.562Z,20.2
2017-01-02T09:50:05.614Z,20.3
2017-01-02T09:52:04.876Z,20.3
2017-01-02T09:54:04.639Z,20.3
2017-01-02T09:56:07.985Z,20.3
2017-01-02T09:58:05.110Z,20.3
2017-01-02T10:00:04.809Z,20.3
2017-01-02T10:02:05.555Z,20.3
2017-01-02T10:04:05.237Z,20.3
2017-01-02T10:06:04.912Z,20.3
2017-01-02T10:08:04.956Z,20.3
2017-01-02T10:10:04.634Z,20.3
2017-01-02T10:12:07.956Z,20.3
2017-01-02T10:14:04.915Z,20.3
2017-01-02T10:16:04.754Z,20.3
2017-01-02T10:18:04.681Z,20.3
2017-01-02T10:20:04.689Z,20.3
2017-01-02T10:22:04.899Z,20.3
2017-01-02T10:24:05.622Z,20.3
2017-01-02T10:26:08.191Z,20.3
2017-01-02T10:28:07.428Z,20.3
2017-01-02T10:30:04.688Z,20.3
2017-01-02T10:32:05.592Z,20.4
2017-01-02T10:34:04.873Z,20.4
2017-01-02T10:36:05.587Z,20.4
2017-01-02T10:38:05.642Z,20.4
2017-01-02T10:40:04.912Z,20.4
2017-01-02T10:42:05.583Z,20.4
2017-01-02T10:44:08.083Z,20.4
2017-01-02T10:46:05.347Z,20.4
2017-01-02T10:48:05.282Z,20.4
2017-01-02T10:50:05.069Z,20.4
2017-01-02T10:52:09.851Z,20.5
2017-01-02T10:54:05.695Z,20.5
2017-01-02T10:56:05.896Z,20.5
2017-01-02T10:58:08.171Z,20.5
2017-01-02T11:00:04.875Z,20.5
2017-01-02T11:02:05.744Z,20.5
2017-01-02T11:04:05.514Z,20.5
2017-01-02T11:06:05.289Z,20.5
2017-01-02T11:08:05.225Z,20.5
2017-01-02T11:10:04.994Z,20.4
2017-01-02T11:12:05.190Z,20.5
2017-01-02T11:14:05.217Z,20.4
2017-01-02T11:16:05.105Z,20.4
2017-01-02T11:18:05.417Z,20.5
2017-01-02T11:20:05.187Z,20.4
2017-01-02T11:22:04.979Z,20.5
2017-01-02T11:24:05.196Z,20.4
2017-01-02T11:26:05.586Z,20.5
2017-01-02T11:28:07.874Z,20.4
2017-01-02T11:30:05.128Z,20.4
2017-01-02T11:32:05.274Z,20.4
2017-01-02T11:34:10.350Z,20.4
2017-01-02T11:36:05.048Z,20.5
2017-01-02T11:38:09.943Z,20.4
2017-01-02T11:40:05.268Z,20.5
2017-01-02T11:42:04.969Z,20.4
2017-01-02T11:44:04.784Z,20.4
2017-01-02T11:46:08.057Z,20.5
2017-01-02T11:48:04.798Z,20.4
2017-01-02T11:50:05.953Z,20.5
2017-01-02T11:52:04.671Z,20.5
2017-01-02T11:54:05.368Z,20.5
2017-01-02T11:56:07.980Z,20.5
2017-01-02T11:58:04.685Z,20.5
2017-01-02T12:00:05.432Z,20.5
2017-01-02T12:02:05.470Z,20.5
2017-01-02T12:04:07.705Z,20.5
2017-01-02T12:06:05.188Z,20.5
2017-01-02T12:08:04.918Z,20.5
2017-01-02T12:10:04.765Z,20.5
2017-01-02T12:12:10.524Z,20.5
2017-01-02T12:14:05.705Z,20.5
2017-01-02T12:16:05.409Z,20.5
2017-01-02T12:18:05.323Z,20.5
2017-01-02T12:20:05.685Z,20.5
2017-01-02T12:22:05.754Z,20.5
2017-01-02T12:24:08.176Z,20.5
2017-01-02T12:26:05.004Z,20.5
2017-01-02T12:28:04.937Z,20.5
2017-01-02T12:30:04.677Z,20.5
2017-01-02T12:32:05.547Z,20.5
2017-01-02T12:34:05.332Z,20.5
2017-01-02T12:36:05.292Z,20.5
2017-01-02T12:38:05.284Z,20.5
2017-01-02T12:40:04.981Z,20.5
2017-01-02T12:42:04.819Z,20.5
2017-01-02T12:44:08.071Z,20.5
2017-01-02T12:46:07.332Z,20.5
2017-01-02T12:48:05.021Z,20.5
2017-01-02T12:50:05.116Z,20.5
2017-01-02T12:52:05.365Z,20.5
2017-01-02T12:54:06.165Z,20.5
2017-01-02T12:56:09.910Z,20.5
2017-01-02T12:58:04.667Z,20.5
2017-01-02T13:00:05.359Z,20.5
2017-01-02T13:02:05.416Z,20.5
2017-01-02T13:04:05.092Z,20.5
2017-01-02T13:06:07.335Z,20.5
2017-01-02T13:08:05.063Z,20.5
2017-01-02T13:10:05.352Z,20.5
2017-01-02T13:12:04.731Z,20.5
2017-01-02T13:14:05.331Z,20.4
2017-01-02T13:16:05.149Z,20.2
2017-01-02T13:18:05.073Z,20.2
2017-01-02T13:20:05.714Z,20.1
2017-01-02T13:22:05.419Z,20
2017-01-02T13:24:05.139Z,19.9
2017-01-02T13:26:05.041Z,19.9
2017-01-02T13:28:09.822Z,20
2017-01-02T13:30:08.083Z,20.1
2017-01-02T13:32:04.883Z,20.1
2017-01-02T13:34:04.713Z,20.1
2017-01-02T13:36:07.139Z,20.2
2017-01-02T13:38:04.873Z,20.2
2017-01-02T13:40:18.263Z,20.3
2017-01-02T13:42:05.118Z,20.3
2017-01-02T13:44:05.569Z,20.3
2017-01-02T13:46:05.343Z,20.3
2017-01-02T13:48:08.102Z,20.4
2017-01-02T13:50:04.823Z,20.4
2017-01-02T13:52:05.596Z,20.4
2017-01-02T13:54:05.333Z,20.4
2017-01-02T13:56:05.285Z,20.4
2017-01-02T13:58:07.569Z,20.4
2017-01-02T14:00:05.023Z,20.4
2017-01-02T14:02:07.437Z,20.5
2017-01-02T14:04:07.639Z,20.4
2017-01-02T14:06:05.353Z,20.4
2017-01-02T14:08:10.550Z,20.5
2017-01-02T14:10:04.756Z,20.5
2017-01-02T14:12:04.998Z,20.5
2017-01-02T14:14:05.070Z,20.5
2017-01-02T14:16:04.883Z,20.5
2017-01-02T14:18:04.826Z,20.5
2017-01-02T14:20:05.198Z,20.5
2017-01-02T14:22:12.712Z,20.6
2017-01-02T14:24:09.926Z,20.5
2017-01-02T14:26:07.820Z,20.6
2017-01-02T14:28:05.707Z,20.6
2017-01-02T14:30:08.232Z,20.6
2017-01-02T14:32:05.142Z,20.6
2017-01-02T14:34:07.408Z,20.6
2017-01-02T14:36:07.689Z,20.6
2017-01-02T14:38:08.397Z,20.6
2017-01-02T14:40:05.140Z,20.6
2017-01-02T14:42:04.857Z,20.6
2017-01-02T14:44:05.561Z,20.6
2017-01-02T14:46:05.683Z,20.6
2017-01-02T14:48:04.631Z,20.6
2017-01-02T14:50:05.726Z,20.6
2017-01-02T14:52:05.689Z,20.6
2017-01-02T14:54:05.442Z,20.6
2017-01-02T14:56:05.568Z,20.6
2017-01-02T14:58:05.387Z,20.6
2017-01-02T15:00:05.113Z,20.6
2017-01-02T15:02:05.038Z,20.6
2017-01-02T15:04:05.130Z,20.6
2017-01-02T15:06:04.831Z,20.6
2017-01-02T15:08:05.759Z,20.6
2017-01-02T15:10:05.018Z,20.6
2017-01-02T15:12:04.728Z,20.6
2017-01-02T15:14:05.646Z,20.5
2017-01-02T15:16:05.381Z,20.5
2017-01-02T15:18:05.139Z,20.6
2017-01-02T15:20:05.186Z,20.5
2017-01-02T15:22:05.121Z,20.5
2017-01-02T15:24:04.861Z,20.5
2017-01-02T15:26:06.080Z,20.5
2017-01-02T15:28:04.913Z,20.5
2017-01-02T15:30:04.670Z,20.5
2017-01-02T15:32:05.610Z,20.5
2017-01-02T15:34:05.741Z,20.5
2017-01-02T15:36:04.994Z,20.5
2017-01-02T15:38:04.907Z,20.5
2017-01-02T15:40:05.272Z,20.5
2017-01-02T15:42:05.113Z,20.5
2017-01-02T15:44:05.065Z,20.5
2017-01-02T15:46:07.390Z,20.5
2017-01-02T15:48:05.101Z,20.5
2017-01-02T15:50:05.173Z,20.5
2017-01-02T15:52:07.428Z,20.5
2017-01-02T15:54:05.136Z,20.5
2017-01-02T15:56:04.874Z,20.4
2017-01-02T15:58:06.112Z,20.5
2017-01-02T16:00:07.677Z,20.4
2017-01-02T16:02:05.573Z,20.4
2017-01-02T16:04:05.292Z,20.4
2017-01-02T16:06:05.165Z,20.4
2017-01-02T16:08:05.102Z,20.4
2017-01-02T16:10:04.838Z,20.4
2017-01-02T16:12:08.100Z,20.4
2017-01-02T16:14:05.410Z,20.4
2017-01-02T16:16:05.085Z,20.4
2017-01-02T16:18:10.157Z,20.4
2017-01-02T16:20:05.236Z,20.4
2017-01-02T16:22:04.963Z,20.4
2017-01-02T16:24:05.235Z,20.4
2017-01-02T16:26:05.112Z,20.4
2017-01-02T16:28:04.919Z,20.4
2017-01-02T16:30:04.911Z,20.4
2017-01-02T16:32:05.182Z,20.4
2017-01-02T16:34:04.947Z,20.4
2017-01-02T16:36:05.285Z,20.4
2017-01-02T16:38:07.675Z,20.3
2017-01-02T16:40:05.400Z,20.4
2017-01-02T16:42:05.107Z,20.4
2017-01-02T16:44:05.135Z,20.4
2017-01-02T16:46:05.086Z,20.3
2017-01-02T16:48:04.834Z,20.4
2017-01-02T16:50:05.570Z,20.4
2017-01-02T16:52:05.308Z,20.4
2017-01-02T16:54:05.382Z,20.4
2017-01-02T16:56:07.725Z,20.3
2017-01-02T16:58:08.053Z,20.3
2017-01-02T17:00:07.309Z,20.4
2017-01-02T17:02:05.363Z,20.4
2017-01-02T17:04:05.073Z,20.4
2017-01-02T17:06:04.823Z,20.3
2017-01-02T17:08:05.823Z,20.4
2017-01-02T17:10:05.211Z,20.4
2017-01-02T17:12:04.930Z,20.4
2017-01-02T17:14:05.687Z,20.3
2017-01-02T17:16:05.464Z,20.4
2017-01-02T17:18:04.815Z,20.4
2017-01-02T17:20:05.496Z,20.4
2017-01-02T17:22:05.526Z,20.3
2017-01-02T17:24:07.338Z,20.3
2017-01-02T17:26:05.340Z,20.3
2017-01-02T17:28:07.592Z,20.3
2017-01-02T17:30:05.278Z,20.3
2017-01-02T17:32:04.789Z,20.3
2017-01-02T17:34:08.001Z,20.3
2017-01-02T17:36:04.743Z,20.3
2017-01-02T17:38:04.738Z,20.3
2017-01-02T17:40:05.403Z,20.3
2017-01-02T17:42:07.506Z,20.3
2017-01-02T17:44:05.638Z,20.3
2017-01-02T17:46:04.851Z,20.3
2017-01-02T17:48:08.054Z,20.4
2017-01-02T17:50:04.785Z,20.4
2017-01-02T17:52:08.017Z,20.4
2017-01-02T17:54:04.756Z,20.4
2017-01-02T17:56:05.006Z,20.5
2017-01-02T17:58:05.613Z,20.5
2017-01-02T18:00:05.339Z,20.5
2017-01-02T18:02:12.983Z,20.5
2017-01-02T18:04:04.722Z,20.5
2017-01-02T18:06:05.385Z,20.5
2017-01-02T18:08:10.489Z,20.5
2017-01-02T18:10:07.756Z,20.5
2017-01-02T18:12:10.518Z,20.5
2017-01-02T18:14:05.401Z,20.6
2017-01-02T18:16:10.156Z,20.6
2017-01-02T18:18:05.095Z,20.5
2017-01-02T18:20:07.787Z,20.6
2017-01-02T18:22:05.709Z,20.5
2017-01-02T18:24:07.907Z,20.6
2017-01-02T18:26:05.975Z,20.6
2017-01-02T18:28:07.764Z,20.6
2017-01-02T18:30:05.594Z,20.6
2017-01-02T18:32:05.656Z,20.6
2017-01-02T18:34:05.590Z,20.7
2017-01-02T18:36:05.515Z,20.7
2017-01-02T18:38:07.761Z,20.6
2017-01-02T18:40:04.874Z,20.6
2017-01-02T18:42:05.561Z,20.7
2017-01-02T18:44:05.670Z,20.7
2017-01-02T18:46:05.626Z,20.7
2017-01-02T18:48:04.813Z,20.6
2017-01-02T18:50:05.244Z,20.6
2017-01-02T18:52:05.018Z,20.7
2017-01-02T18:54:04.998Z,20.7
2017-01-02T18:56:10.066Z,20.7
2017-01-02T18:58:04.788Z,20.7
2017-01-02T19:00:08.104Z,20.7
2017-01-02T19:02:05.906Z,20.7
2017-01-02T19:04:05.608Z,20.7
2017-01-02T19:06:04.793Z,20.7
2017-01-02T19:08:05.931Z,20.8
2017-01-02T19:10:05.279Z,20.8
2017-01-02T19:12:05.019Z,20.7
2017-01-02T19:14:04.939Z,20.7
2017-01-02T19:16:04.738Z,20.7
2017-01-02T19:18:07.706Z,20.7
2017-01-02T19:20:07.245Z,20.7
2017-01-02T19:22:05.244Z,20.7
2017-01-02T19:24:04.952Z,20.7
2017-01-02T19:26:05.242Z,20.7
2017-01-02T19:28:07.538Z,20.6
2017-01-02T19:30:04.887Z,20.6
2017-01-02T19:32:05.834Z,20.7
2017-01-02T19:34:04.864Z,20.6
2017-01-02T19:36:08.090Z,20.6
2017-01-02T19:38:11.350Z,20.6
2017-01-02T19:40:05.129Z,20.6
2017-01-02T19:42:04.976Z,20.6
2017-01-02T19:44:04.849Z,20.6
2017-01-02T19:46:05.583Z,20.6
2017-01-02T19:48:05.321Z,20.6
2017-01-02T19:50:05.814Z,20.6
2017-01-02T19:52:05.553Z,20.6
2017-01-02T19:54:05.339Z,20.6
2017-01-02T19:56:05.687Z,20.6
2017-01-02T19:58:05.147Z,20.6
2017-01-02T20:00:04.885Z,20.6
2017-01-02T20:02:05.758Z,20.6
2017-01-02T20:04:05.549Z,20.6
2017-01-02T20:06:07.914Z,20.5
2017-01-02T20:08:06.818Z,20.6
2017-01-02T20:10:07.287Z,20.6
2017-01-02T20:12:07.528Z,20.6
2017-01-02T20:14:10.524Z,20.6
2017-01-02T20:16:05.481Z,20.6
2017-01-02T20:18:05.409Z,20.6
2017-01-02T20:20:05.478Z,20.6
2017-01-02T20:22:08.347Z,20.6
2017-01-02T20:24:05.513Z,20.6
2017-01-02T20:26:05.810Z,20.6
2017-01-02T20:28:05.548Z,20.6
2017-01-02T20:30:05.274Z,20.5
2017-01-02T20:32:07.992Z,20.5
2017-01-02T20:34:04.722Z,20.6
2017-01-02T20:36:04.680Z,20.5
2017-01-02T20:38:05.577Z,20.6
2017-01-02T20:40:04.816Z,20.5
2017-01-02T20:42:05.505Z,20.5
2017-01-02T20:44:05.076Z,20.5
2017-01-02T20:46:05.198Z,20.5
2017-01-02T20:48:07.673Z,20.5
2017-01-02T20:50:05.568Z,20.5
2017-01-02T20:52:06.033Z,20.5
2017-01-02T20:54:07.746Z,20.5
2017-01-02T20:56:05.167Z,20.5
2017-01-02T20:58:05.295Z,20.5
2017-01-02T21:00:05.218Z,20.5
2017-01-02T21:02:04.996Z,20.5
2017-01-02T21:04:07.243Z,20.5
2017-01-02T21:06:05.034Z,20.5
2017-01-02T21:08:07.570Z,20.5
2017-01-02T21:10:05.289Z,20.5
2017-01-02T21:12:07.511Z,20.5
2017-01-02T21:14:05.476Z,20.5
2017-01-02T21:16:05.209Z,20.5
2017-01-02T21:18:04.648Z,20.5
2017-01-02T21:20:05.222Z,20.5
2017-01-02T21:22:04.960Z,20.5
2017-01-02T21:24:04.661Z,20.5
2017-01-02T21:26:05.107Z,20.5
2017-01-02T21:28:12.975Z,20.5
2017-01-02T21:30:04.708Z,20.5
2017-01-02T21:32:08.447Z,20.6
2017-01-02T21:34:05.165Z,20.6
2017-01-02T21:36:04.892Z,20.6
2017-01-02T21:38:04.864Z,20.6
2017-01-02T21:40:05.624Z,20.5
2017-01-02T21:42:08.011Z,20.5
2017-01-02T21:44:04.961Z,20.5
2017-01-02T21:46:04.671Z,20.5
2017-01-02T21:48:10.589Z,20.5
2017-01-02T21:50:05.427Z,20.5
2017-01-02T21:52:05.124Z,20.5
2017-01-02T21:54:05.125Z,20.5
2017-01-02T21:56:05.242Z,20.5
2017-01-02T21:58:07.538Z,20.5
2017-01-02T22:00:05.305Z,20.5
2017-01-02T22:02:05.704Z,20.5
2017-01-02T22:04:05.060Z,20.5
2017-01-02T22:06:04.982Z,20.6
2017-01-02T22:08:07.233Z,20.6
2017-01-02T22:10:05.548Z,20.5
2017-01-02T22:12:05.322Z,20.6
2017-01-02T22:14:10.079Z,20.5
2017-01-02T22:16:04.869Z,20.6
2017-01-02T22:18:04.783Z,20.6
2017-01-02T22:20:05.834Z,20.6
2017-01-02T22:22:05.580Z,20.6
2017-01-02T22:24:05.301Z,20.6
2017-01-02T22:26:04.817Z,20.6
2017-01-02T22:28:08.032Z,20.6
2017-01-02T22:30:09.856Z,20.6
2017-01-02T22:32:05.948Z,20.6
2017-01-02T22:34:04.631Z,20.6
2017-01-02T22:36:05.351Z,20.7
2017-01-02T22:38:10.450Z,20.7
2017-01-02T22:40:05.406Z,20.7
2017-01-02T22:42:05.131Z,20.8
2017-01-02T22:44:04.972Z,20.8
2017-01-02T22:46:05.105Z,20.8
2017-01-02T22:48:07.988Z,20.8
2017-01-02T22:50:04.729Z,20.8
2017-01-02T22:52:05.393Z,20.7
2017-01-02T22:54:05.107Z,20.8
2017-01-02T22:56:05.383Z,20.8
2017-01-02T22:58:05.090Z,20.8
2017-01-02T23:00:05.405Z,20.8
2017-01-02T23:02:05.555Z,20.8
2017-01-02T23:04:05.286Z,20.7
2017-01-02T23:06:05.500Z,20.8
2017-01-02T23:08:07.922Z,20.8
2017-01-02T23:10:05.344Z,20.8
2017-01-02T23:12:05.069Z,20.8
2017-01-02T23:14:05.343Z,20.8
2017-01-02T23:16:10.103Z,20.8
2017-01-02T23:18:05.332Z,20.8
2017-01-02T23:20:05.107Z,20.8
2017-01-02T23:22:07.354Z,20.8
2017-01-02T23:24:05.084Z,20.8
2017-01-02T23:26:05.327Z,20.8
2017-01-02T23:28:04.992Z,20.8
2017-01-02T23:30:04.753Z,20.8
2017-01-02T23:32:08.078Z,20.8
2017-01-02T23:34:04.851Z,20.8
2017-01-02T23:36:05.584Z,20.8
2017-01-02T23:38:05.383Z,20.8
2017-01-02T23:40:05.093Z,20.8
2017-01-02T23:42:04.779Z,20.8
2017-01-02T23:44:05.832Z,20.8
2017-01-02T23:46:05.486Z,20.8
2017-01-02T23:48:05.353Z,20.8
2017-01-02T23:50:05.377Z,20.8
2017-01-02T23:52:05.064Z,20.8
2017-01-02T23:54:04.888Z,20.8
2017-01-02T23:56:05.272Z,20.8
2017-01-02T23:58:05.123Z,20.8
